Graysville, Missouri
Current Conditions -  °F | °C
As of 3:50 AM on Sunday 21 Dec 2014 (Local Time) from KTVK Reporting Station
Broken Clouds Broken Clouds  
Wind Chill: -1°   Ceiling: 2600
Heat Index:   Visibility: 10mi
Dew Point:   Wind: 9mph
Humidity: 100%   Direction: 160°SSE
Pressure: 30.1"   Gusts: NA
Location:  40.4961°N, 92.9907°W
Report Text: KTVK 210950Z AUTO 16008KT 10SM FEW013 BKN026 03/03 A3010 RMK AO2
Loading
Personal Weather Stations






























Interactive Weather Map New forecast layout! Learn more

10-Day Weather Forecast

Advertisements
Track Severe Weather on mobile